KRHV/RHV METAR and TAF weather

Enter ICAO airport designator
Station Type Date Time Source
KRHV METAR 2019/05/20 04:50 UTC NOAA

KRHV 200450Z 00000KT 10SM BKN050 12/10 A2989 RMK LAST


Station Type Date Time Source
KRHV Decoded METAR 2019/05/20 04:50 UTC NOAA

San Jose / Reid / Hillv, CA, United States (KRHV) 37-20N 121-49W
May 20, 2019 - 12:50 AM EDT / 2019.05.20 0450 UTC
Wind: Calm:0
Visibility: 10 mile(s):0
Sky conditions: mostly cloudy
Temperature: 53 F (12 C)
Dew Point: 50 F (10 C)
Relative Humidity: 87%
Pressure (altimeter): 29.89 in. Hg (1012 hPa)
ob: KRHV 200450Z 00000KT 10SM BKN050 12/10 A2989 RMK LAST
cycle: 5

Station Type Date Time Source
KRHV TAF UTC NOAA

Error!

Example: see airport list